createdAt,value
2019-01-19T00:00:34.401Z,4.53
2019-01-19T00:03:08.864Z,4.42
2019-01-19T00:05:40.370Z,5.53
2019-01-19T00:08:14.772Z,5.72
2019-01-19T00:11:01.115Z,4.33
2019-01-19T00:13:35.342Z,4.30
2019-01-19T00:16:15.990Z,5.42
2019-01-19T00:19:16.281Z,5.30
2019-01-19T00:21:53.667Z,5.42
2019-01-19T00:24:25.181Z,4.72
2019-01-19T00:27:19.226Z,4.53
2019-01-19T00:30:17.907Z,4.67
2019-01-19T00:33:04.600Z,5.12
2019-01-19T00:35:45.040Z,4.67
2019-01-19T00:38:16.543Z,5.87
2019-01-19T00:41:00.010Z,5.03
2019-01-19T00:43:29.120Z,5.92
2019-01-19T00:46:09.368Z,5.58
2019-01-19T00:48:53.079Z,5.28
2019-01-19T00:51:27.240Z,7.03
2019-01-19T00:54:01.309Z,6.35
2019-01-19T00:57:00.101Z,4.92
2019-01-19T00:59:30.621Z,5.35
2019-01-19T01:02:02.107Z,5.30
2019-01-19T01:04:42.594Z,5.10
2019-01-19T01:07:20.072Z,6.75
2019-01-19T01:10:03.797Z,5.15
2019-01-19T01:12:51.745Z,5.65
2019-01-19T01:15:25.911Z,4.70
2019-01-19T01:17:56.809Z,4.85
2019-01-19T01:20:30.973Z,5.08
2019-01-19T01:23:20.655Z,5.00
2019-01-19T01:26:17.816Z,4.70
2019-01-19T01:29:01.024Z,5.12
2019-01-19T01:31:35.323Z,6.10
2019-01-19T01:34:18.663Z,5.22
2019-01-19T01:37:14.142Z,4.50
2019-01-19T01:39:54.313Z,5.47
2019-01-19T01:42:48.218Z,5.08
2019-01-19T01:45:25.268Z,4.65
2019-01-19T01:48:18.030Z,4.72
2019-01-19T01:50:55.157Z,4.20
2019-01-19T01:53:32.355Z,4.10
2019-01-19T01:56:00.887Z,4.95
2019-01-19T01:58:32.373Z,4.75
2019-01-19T02:01:09.861Z,5.17
2019-01-19T02:04:13.601Z,5.17
2019-01-19T02:07:06.510Z,4.70
2019-01-19T02:09:44.202Z,4.58
2019-01-19T02:12:27.699Z,5.62
2019-01-19T02:15:11.127Z,5.20
2019-01-19T02:17:48.290Z,4.60
2019-01-19T02:20:25.403Z,4.50
2019-01-19T02:23:29.211Z,4.60
2019-01-19T02:26:03.355Z,4.40
2019-01-19T02:28:43.937Z,4.75
2019-01-19T02:31:24.443Z,4.22
2019-01-19T02:34:10.665Z,4.28
2019-01-19T02:37:01.880Z,3.85
2019-01-19T02:39:38.629Z,4.28
2019-01-19T02:42:19.313Z,4.05
2019-01-19T02:45:22.027Z,4.10
2019-01-19T02:48:07.876Z,4.00
2019-01-19T02:50:44.863Z,4.55
2019-01-19T02:53:31.260Z,4.75
2019-01-19T02:56:02.793Z,4.15
2019-01-19T02:58:37.017Z,4.83
2019-01-19T03:01:31.072Z,4.00
2019-01-19T03:04:17.613Z,5.33
2019-01-19T03:07:01.158Z,4.37
2019-01-19T03:09:53.318Z,5.03
2019-01-19T03:12:37.127Z,4.70
2019-01-19T03:15:17.408Z,4.92
2019-01-19T03:17:57.794Z,4.90
2019-01-19T03:20:35.520Z,4.47
2019-01-19T03:23:09.902Z,4.95
2019-01-19T03:25:50.252Z,4.83
2019-01-19T03:28:36.873Z,4.47
2019-01-19T03:31:30.877Z,5.03
2019-01-19T03:34:02.393Z,5.42
2019-01-19T03:36:45.831Z,5.03
2019-01-19T03:39:35.951Z,4.45
2019-01-19T03:42:16.709Z,5.55
2019-01-19T03:44:59.800Z,5.58
2019-01-19T03:47:34.149Z,5.10
2019-01-19T03:50:08.546Z,5.25
2019-01-19T03:52:42.966Z,5.50
2019-01-19T03:55:29.461Z,5.95
2019-01-19T03:58:00.968Z,5.60
2019-01-19T04:00:46.977Z,5.45
2019-01-19T04:03:33.476Z,4.92
2019-01-19T04:06:21.292Z,5.58
2019-01-19T04:08:58.035Z,5.17
2019-01-19T04:11:47.526Z,4.40
2019-01-19T04:14:37.103Z,4.70
2019-01-19T04:17:27.997Z,4.33
2019-01-19T04:20:18.327Z,4.30
2019-01-19T04:22:47.009Z,4.17
2019-01-19T04:25:18.535Z,4.75
2019-01-19T04:27:46.997Z,4.42
2019-01-19T04:30:15.574Z,4.58
2019-01-19T04:32:43.999Z,4.95
2019-01-19T04:35:12.474Z,4.22
2019-01-19T04:37:40.903Z,4.70
2019-01-19T04:40:12.231Z,5.65
2019-01-19T04:42:42.433Z,5.00
2019-01-19T04:45:11.039Z,5.75
2019-01-19T04:47:39.466Z,5.85
2019-01-19T04:50:10.584Z,5.55
2019-01-19T04:52:39.058Z,5.45
2019-01-19T04:55:07.998Z,5.37
2019-01-19T04:57:36.433Z,5.55
2019-01-19T05:00:17.869Z,5.10
2019-01-19T05:02:46.471Z,5.05
2019-01-19T05:05:14.953Z,5.55
2019-01-19T05:07:43.382Z,5.50
2019-01-19T05:10:13.080Z,6.03
2019-01-19T05:12:41.546Z,5.75
2019-01-19T05:15:12.952Z,5.65
2019-01-19T05:17:41.405Z,6.50
2019-01-19T05:20:12.298Z,5.50
2019-01-19T05:22:40.749Z,6.55
2019-01-19T05:25:11.340Z,6.12
2019-01-19T05:27:39.800Z,6.67
2019-01-19T05:30:18.882Z,7.70
2019-01-19T05:32:47.488Z,7.75
2019-01-19T05:35:15.948Z,7.62
2019-01-19T05:37:44.416Z,7.33
2019-01-19T05:40:13.714Z,7.53
2019-01-19T05:42:42.312Z,7.05
2019-01-19T05:45:13.222Z,7.72
2019-01-19T05:47:41.685Z,8.70
2019-01-19T05:50:15.620Z,8.40
2019-01-19T05:52:44.170Z,12.07
2019-01-19T05:55:12.653Z,9.98
2019-01-19T05:57:41.110Z,8.73
2019-01-19T06:00:12.636Z,9.80
2019-01-19T06:02:48.320Z,9.95
2019-01-19T06:05:28.630Z,9.00
2019-01-19T06:07:59.843Z,9.83
2019-01-19T06:10:28.248Z,9.23
2019-01-19T06:12:56.701Z,9.10
2019-01-19T06:15:25.279Z,9.78
2019-01-19T06:17:53.754Z,10.28
2019-01-19T06:20:22.356Z,10.60
2019-01-19T06:22:50.824Z,11.18
2019-01-19T06:25:19.342Z,11.15
2019-01-19T06:27:47.838Z,10.82
2019-01-19T06:30:21.602Z,10.55
2019-01-19T06:32:50.081Z,9.93
2019-01-19T06:35:18.686Z,8.65
2019-01-19T06:37:47.147Z,9.23
2019-01-19T06:40:17.426Z,9.65
2019-01-19T06:42:46.144Z,10.08
2019-01-19T06:45:19.389Z,9.25
2019-01-19T06:47:47.852Z,9.73
2019-01-19T06:50:17.326Z,9.83
2019-01-19T06:52:46.079Z,9.53
2019-01-19T06:55:17.498Z,8.83
2019-01-19T06:57:45.955Z,9.55
2019-01-19T07:00:17.238Z,8.90
2019-01-19T07:02:45.934Z,8.83
2019-01-19T07:05:14.542Z,8.93
2019-01-19T07:07:43.157Z,9.00
2019-01-19T07:10:14.297Z,8.90
2019-01-19T07:12:42.748Z,8.13
2019-01-19T07:15:12.436Z,8.40
2019-01-19T07:17:40.888Z,9.05
2019-01-19T07:20:14.772Z,7.72
2019-01-19T07:22:43.228Z,9.83
2019-01-19T07:25:11.665Z,7.47
2019-01-19T07:27:40.126Z,10.45
2019-01-19T07:30:14.398Z,8.38
2019-01-19T07:32:43.071Z,9.00
2019-01-19T07:35:11.761Z,9.13
2019-01-19T07:37:40.215Z,10.45
2019-01-19T07:40:11.613Z,11.18
2019-01-19T07:42:41.482Z,9.55
2019-01-19T07:45:12.187Z,9.15
2019-01-19T07:47:41.697Z,10.70
2019-01-19T07:50:12.800Z,9.90
2019-01-19T07:52:41.275Z,9.95
2019-01-19T07:55:12.147Z,9.40
2019-01-19T07:57:40.587Z,11.25
2019-01-19T08:00:12.095Z,11.73
2019-01-19T08:02:40.696Z,12.05
2019-01-19T08:05:11.139Z,11.03
2019-01-19T08:07:39.595Z,11.50
2019-01-19T08:10:11.169Z,10.68
2019-01-19T08:12:39.615Z,10.85
2019-01-19T08:15:11.145Z,11.40
2019-01-19T08:17:39.741Z,12.43
2019-01-19T08:20:11.613Z,10.35
2019-01-19T08:22:40.069Z,11.73
2019-01-19T08:25:10.275Z,10.95
2019-01-19T08:27:39.173Z,11.78
2019-01-19T08:30:21.995Z,12.58
2019-01-19T08:32:50.425Z,11.95
2019-01-19T08:35:19.090Z,13.13
2019-01-19T08:37:48.304Z,12.35
2019-01-19T08:40:31.342Z,13.95
2019-01-19T08:43:01.450Z,13.98
2019-01-19T08:45:29.905Z,13.30
2019-01-19T08:47:58.927Z,13.45
2019-01-19T08:50:27.424Z,12.98
2019-01-19T08:52:55.827Z,13.15
2019-01-19T08:55:24.302Z,13.50
2019-01-19T08:57:52.755Z,13.58
2019-01-19T09:00:21.882Z,13.22
2019-01-19T09:02:50.339Z,14.63
2019-01-19T09:05:18.868Z,14.53
2019-01-19T09:07:47.304Z,14.07
2019-01-19T09:10:19.472Z,13.75
2019-01-19T09:12:47.909Z,15.30
2019-01-19T09:15:21.989Z,14.50
2019-01-19T09:17:50.440Z,14.05
2019-01-19T09:20:19.277Z,15.43
2019-01-19T09:22:49.478Z,14.45
2019-01-19T09:25:17.927Z,13.53
2019-01-19T09:27:46.418Z,12.30
2019-01-19T09:30:20.055Z,13.62
2019-01-19T09:32:48.523Z,13.43
2019-01-19T09:35:17.315Z,13.05
2019-01-19T09:37:46.954Z,13.03
2019-01-19T09:40:16.917Z,12.75
2019-01-19T09:42:45.745Z,11.95
2019-01-19T09:45:16.526Z,12.70
2019-01-19T09:47:45.002Z,12.53
2019-01-19T09:50:15.830Z,13.72
2019-01-19T09:52:44.308Z,13.62
2019-01-19T09:55:12.908Z,13.22
2019-01-19T09:57:41.372Z,12.23
2019-01-19T10:00:13.130Z,13.32
2019-01-19T10:02:41.611Z,13.58
2019-01-19T10:05:15.818Z,13.90
2019-01-19T10:07:48.396Z,15.13
2019-01-19T10:10:14.887Z,14.20
2019-01-19T10:12:43.370Z,15.23
2019-01-19T10:15:14.459Z,13.62
2019-01-19T10:17:42.964Z,16.70
2019-01-19T10:20:20.312Z,14.68
2019-01-19T10:22:48.788Z,13.98
2019-01-19T10:25:17.604Z,14.00
2019-01-19T10:27:46.208Z,14.45
2019-01-19T10:30:17.340Z,16.42
2019-01-19T10:32:45.886Z,14.55
2019-01-19T10:35:15.461Z,16.42
2019-01-19T10:37:43.924Z,14.68
2019-01-19T10:40:14.799Z,15.90
2019-01-19T10:42:43.271Z,16.30
2019-01-19T10:45:17.097Z,14.23
2019-01-19T10:47:45.705Z,16.05
2019-01-19T10:50:16.603Z,17.35
2019-01-19T10:52:45.290Z,15.50
2019-01-19T10:55:16.201Z,13.62
2019-01-19T10:57:44.696Z,14.93
2019-01-19T11:00:27.471Z,16.23
2019-01-19T11:02:56.847Z,14.18
2019-01-19T11:05:25.430Z,14.53
2019-01-19T11:07:54.149Z,17.35
2019-01-19T11:10:25.043Z,15.90
2019-01-19T11:12:53.524Z,13.95
2019-01-19T11:15:21.996Z,14.25
2019-01-19T11:17:50.445Z,15.50
2019-01-19T11:20:21.638Z,14.68
2019-01-19T11:22:50.105Z,13.68
2019-01-19T11:25:21.559Z,15.28
2019-01-19T11:27:50.022Z,14.95
2019-01-19T11:30:20.868Z,16.15
2019-01-19T11:32:49.274Z,12.58
2019-01-19T11:35:18.462Z,14.25
2019-01-19T11:37:46.932Z,13.85
2019-01-19T11:40:18.462Z,14.30
2019-01-19T11:42:47.249Z,15.68
2019-01-19T11:45:20.788Z,15.80
2019-01-19T11:47:49.300Z,15.23
2019-01-19T11:50:19.392Z,14.50
2019-01-19T11:52:48.181Z,16.42
2019-01-19T11:55:19.393Z,15.50
2019-01-19T11:57:50.297Z,14.58
2019-01-19T12:00:33.288Z,14.90
2019-01-19T12:03:01.755Z,15.30
2019-01-19T12:05:32.853Z,15.75
2019-01-19T12:08:02.420Z,14.38
2019-01-19T12:10:31.774Z,23.12
2019-01-19T12:13:00.505Z,16.45
2019-01-19T12:15:29.223Z,14.28
2019-01-19T12:17:58.128Z,13.90
2019-01-19T12:20:30.761Z,14.38
2019-01-19T12:22:59.376Z,15.78
2019-01-19T12:25:28.100Z,14.68
2019-01-19T12:27:56.585Z,14.30
2019-01-19T12:30:29.759Z,15.58
2019-01-19T12:32:58.278Z,12.40
2019-01-19T12:35:26.892Z,15.08
2019-01-19T12:37:55.682Z,13.22
2019-01-19T12:40:26.191Z,14.78
2019-01-19T12:42:57.608Z,14.85
2019-01-19T12:45:32.483Z,14.07
2019-01-19T12:48:01.041Z,14.43
2019-01-19T12:50:29.481Z,15.05
2019-01-19T12:52:57.925Z,14.47
2019-01-19T12:55:26.452Z,13.45
2019-01-19T12:57:54.931Z,13.90
2019-01-19T13:00:26.123Z,13.85
2019-01-19T13:02:55.409Z,13.43
2019-01-19T13:05:33.160Z,12.28
2019-01-19T13:08:01.903Z,12.40
2019-01-19T13:10:33.842Z,13.40
2019-01-19T13:13:03.490Z,13.55
2019-01-19T13:15:50.152Z,13.30
2019-01-19T13:18:39.983Z,13.50
2019-01-19T13:21:37.274Z,13.95
2019-01-19T13:24:11.720Z,13.18
2019-01-19T13:27:13.971Z,14.13
2019-01-19T13:30:02.272Z,14.73
2019-01-19T13:32:42.732Z,14.68
2019-01-19T13:35:30.784Z,13.03
2019-01-19T13:38:08.098Z,14.78
2019-01-19T13:40:42.150Z,13.58
2019-01-19T13:43:41.151Z,15.85
2019-01-19T13:46:35.215Z,14.30
2019-01-19T13:49:23.302Z,13.48
2019-01-19T13:51:54.906Z,13.48
2019-01-19T13:54:41.512Z,14.60
2019-01-19T13:57:31.110Z,13.95
2019-01-19T14:00:08.296Z,14.07
2019-01-19T14:02:45.472Z,12.18
2019-01-19T14:05:28.702Z,29.30
2019-01-19T14:08:11.478Z,16.15
2019-01-19T14:11:15.154Z,18.10
2019-01-19T14:13:58.753Z,15.43
2019-01-19T14:16:30.344Z,15.70
2019-01-19T14:19:04.654Z,14.00
2019-01-19T14:21:45.068Z,14.68
2019-01-19T14:24:25.874Z,14.07
2019-01-19T14:27:15.980Z,19.67
2019-01-19T14:29:53.502Z,14.98
2019-01-19T14:32:43.112Z,14.45
2019-01-19T14:35:14.600Z,14.35
2019-01-19T14:37:48.848Z,14.70
2019-01-19T14:40:29.321Z,15.90
2019-01-19T14:43:30.014Z,14.87
2019-01-19T14:46:12.845Z,15.43
2019-01-19T14:48:50.091Z,16.45
2019-01-19T14:51:39.525Z,15.13
2019-01-19T14:54:23.352Z,13.60
2019-01-19T14:57:06.832Z,13.68
2019-01-19T14:59:49.588Z,14.78
2019-01-19T15:02:29.883Z,14.30
2019-01-19T15:05:07.287Z,15.20
2019-01-19T15:07:59.772Z,15.48
2019-01-19T15:10:43.117Z,14.75
2019-01-19T15:13:14.665Z,17.15
2019-01-19T15:16:02.579Z,15.40
2019-01-19T15:18:36.932Z,16.37
2019-01-19T15:21:19.922Z,15.80
2019-01-19T15:23:54.207Z,15.15
2019-01-19T15:26:31.829Z,16.30
2019-01-19T15:29:12.106Z,16.95
2019-01-19T15:31:49.526Z,15.78
2019-01-19T15:34:25.353Z,16.45
2019-01-19T15:37:19.427Z,17.62
2019-01-19T15:40:08.841Z,18.23
2019-01-19T15:42:48.382Z,17.75
2019-01-19T15:45:22.690Z,20.75
2019-01-19T15:48:15.198Z,17.77
2019-01-19T15:51:14.216Z,16.37
2019-01-19T15:53:51.471Z,16.12
2019-01-19T15:56:35.004Z,18.92
2019-01-19T15:59:27.079Z,17.52
2019-01-19T16:02:13.598Z,17.05
2019-01-19T16:04:54.180Z,16.65
2019-01-19T16:07:34.543Z,16.00
2019-01-19T16:10:17.935Z,15.60
2019-01-19T16:12:52.481Z,15.38
2019-01-19T16:15:29.240Z,15.65
2019-01-19T16:18:26.436Z,15.48
2019-01-19T16:20:57.947Z,15.20
2019-01-19T16:23:41.463Z,14.68
2019-01-19T16:26:15.827Z,16.05
2019-01-19T16:28:53.123Z,14.58
2019-01-19T16:31:33.614Z,15.28
2019-01-19T16:34:17.154Z,15.28
2019-01-19T16:37:07.063Z,14.35
2019-01-19T16:40:01.233Z,15.00
2019-01-19T16:42:35.832Z,14.43
2019-01-19T16:45:18.798Z,16.70
2019-01-19T16:47:53.223Z,15.60
2019-01-19T16:50:40.945Z,16.90
2019-01-19T16:53:20.802Z,16.00
2019-01-19T16:56:10.408Z,16.42
2019-01-19T16:58:57.097Z,15.72
2019-01-19T17:01:39.933Z,16.65
2019-01-19T17:04:29.754Z,20.62
2019-01-19T17:07:10.872Z,15.95
2019-01-19T17:09:48.096Z,15.85
2019-01-19T17:12:42.266Z,16.55
2019-01-19T17:15:40.872Z,15.58
2019-01-19T17:18:15.154Z,16.55
2019-01-19T17:21:12.206Z,19.17
2019-01-19T17:23:46.681Z,20.95
2019-01-19T17:26:48.821Z,19.30
2019-01-19T17:29:41.211Z,18.02
2019-01-19T17:32:24.588Z,17.52
2019-01-19T17:35:14.026Z,16.70
2019-01-19T17:37:53.057Z,17.70
2019-01-19T17:40:24.965Z,17.07
2019-01-19T17:43:02.696Z,17.50
2019-01-19T17:45:45.862Z,17.37
2019-01-19T17:48:26.442Z,22.00
2019-01-19T17:51:28.051Z,21.15
2019-01-19T17:54:25.007Z,23.90
2019-01-19T17:57:05.318Z,38.08
2019-01-19T17:59:56.691Z,20.02
2019-01-19T18:02:37.271Z,19.70
2019-01-19T18:05:18.445Z,21.25
2019-01-19T18:07:52.997Z,19.90
2019-01-19T18:10:33.634Z,20.15
2019-01-19T18:13:11.384Z,18.92
2019-01-19T18:15:48.636Z,18.42
2019-01-19T18:18:22.969Z,16.80
2019-01-19T18:21:06.519Z,16.97
2019-01-19T18:23:49.862Z,18.57
2019-01-19T18:26:30.274Z,16.73
2019-01-19T18:29:21.216Z,17.55
2019-01-19T18:32:14.091Z,17.67
2019-01-19T18:34:57.373Z,17.05
2019-01-19T18:37:31.407Z,16.85
2019-01-19T18:40:06.420Z,17.40
2019-01-19T18:42:49.827Z,18.57
2019-01-19T18:45:26.818Z,17.20
2019-01-19T18:47:58.381Z,20.05
2019-01-19T18:50:32.693Z,25.57
2019-01-19T18:53:27.788Z,21.62
2019-01-19T18:56:07.831Z,25.05
2019-01-19T18:58:45.018Z,22.13
2019-01-19T19:01:19.359Z,25.57
2019-01-19T19:03:56.694Z,30.88
2019-01-19T19:06:47.755Z,28.38
2019-01-19T19:09:37.129Z,31.23
2019-01-19T19:12:31.268Z,28.50
2019-01-19T19:15:19.399Z,28.40
2019-01-19T19:18:05.980Z,25.65
2019-01-19T19:20:40.508Z,25.40
2019-01-19T19:23:21.335Z,20.17
2019-01-19T19:26:07.724Z,22.25
2019-01-19T19:28:57.386Z,21.70
2019-01-19T19:31:28.920Z,21.65
2019-01-19T19:34:12.366Z,23.75
2019-01-19T19:36:55.676Z,21.65
2019-01-19T19:40:00.259Z,21.60
2019-01-19T19:42:46.437Z,21.00
2019-01-19T19:45:33.071Z,22.48
2019-01-19T19:48:22.466Z,22.35
2019-01-19T19:50:56.650Z,28.10
2019-01-19T19:53:25.119Z,60.60
2019-01-19T19:55:52.478Z,22.32
2019-01-19T19:58:20.998Z,23.20
2019-01-19T20:00:50.718Z,25.48
2019-01-19T20:03:19.216Z,27.52
2019-01-19T20:05:47.715Z,30.95
2019-01-19T20:08:16.223Z,29.80
2019-01-19T20:10:46.337Z,28.40
2019-01-19T20:13:14.831Z,21.62
2019-01-19T20:15:43.358Z,23.02
2019-01-19T20:18:11.845Z,20.48
2019-01-19T20:20:41.447Z,20.05
2019-01-19T20:23:09.946Z,20.10
2019-01-19T20:25:38.440Z,18.48
2019-01-19T20:28:06.956Z,18.05
2019-01-19T20:30:45.269Z,17.73
2019-01-19T20:33:13.749Z,17.10
2019-01-19T20:35:43.793Z,17.12
2019-01-19T20:38:12.268Z,16.82
2019-01-19T20:40:40.758Z,17.77
2019-01-19T20:43:09.228Z,17.65
2019-01-19T20:45:37.723Z,17.75
2019-01-19T20:48:06.199Z,17.75
2019-01-19T20:50:34.681Z,17.30
2019-01-19T20:53:03.197Z,18.25
2019-01-19T20:55:31.675Z,19.07
2019-01-19T20:58:00.288Z,18.35
2019-01-19T21:00:28.859Z,18.07
2019-01-19T21:02:59.598Z,17.73
2019-01-19T21:05:28.110Z,18.77
2019-01-19T21:07:56.691Z,19.65
2019-01-19T21:10:31.556Z,18.73
2019-01-19T21:12:55.382Z,18.50
2019-01-19T21:15:25.081Z,17.82
2019-01-19T21:17:55.819Z,19.23
2019-01-19T21:20:23.776Z,19.80
2019-01-19T21:22:52.303Z,19.05
2019-01-19T21:25:20.772Z,18.92
2019-01-19T21:27:49.285Z,17.87
2019-01-19T21:30:18.272Z,19.37
2019-01-19T21:32:46.753Z,21.87
2019-01-19T21:35:15.407Z,19.87
2019-01-19T21:37:43.957Z,18.98
2019-01-19T21:40:14.049Z,19.07
2019-01-19T21:42:42.538Z,17.55
2019-01-19T21:45:16.814Z,19.12
2019-01-19T21:47:45.329Z,19.48
2019-01-19T21:50:13.849Z,18.20
2019-01-19T21:52:42.360Z,17.32
2019-01-19T21:55:11.352Z,18.17
2019-01-19T21:57:40.153Z,17.42
2019-01-19T22:00:14.522Z,18.42
2019-01-19T22:02:43.038Z,18.67
2019-01-19T22:05:11.689Z,18.57
2019-01-19T22:07:40.201Z,18.73
2019-01-19T22:10:20.126Z,18.17
2019-01-19T22:12:48.609Z,18.45
2019-01-19T22:15:18.831Z,18.82
2019-01-19T22:17:47.327Z,17.25
2019-01-19T22:20:17.637Z,19.82
2019-01-19T22:22:46.149Z,18.87
2019-01-19T22:25:14.884Z,18.07
2019-01-19T22:27:44.984Z,19.15
2019-01-19T22:30:19.290Z,19.55
2019-01-19T22:32:49.134Z,16.67
2019-01-19T22:35:17.687Z,19.98
2019-01-19T22:37:46.154Z,18.37
2019-01-19T22:40:17.422Z,19.98
2019-01-19T22:42:48.590Z,19.07
2019-01-19T22:45:17.607Z,19.30
2019-01-19T22:47:46.237Z,19.40
2019-01-19T22:50:16.466Z,20.57
2019-01-19T22:52:45.027Z,21.62
2019-01-19T22:55:13.851Z,19.62
2019-01-19T22:57:42.308Z,19.25
2019-01-19T23:00:24.213Z,18.32
2019-01-19T23:02:52.686Z,21.30
2019-01-19T23:05:21.199Z,22.32
2019-01-19T23:07:49.675Z,21.15
2019-01-19T23:10:18.186Z,18.32
2019-01-19T23:12:46.654Z,22.58
2019-01-19T23:15:15.629Z,20.55
2019-01-19T23:17:44.101Z,20.25
2019-01-19T23:20:12.905Z,26.65
2019-01-19T23:22:41.358Z,21.17
2019-01-19T23:25:10.011Z,21.25
2019-01-19T23:27:38.462Z,20.95
2019-01-19T23:30:09.975Z,19.73
2019-01-19T23:32:38.482Z,20.35
2019-01-19T23:35:08.642Z,20.95
2019-01-19T23:37:37.099Z,23.75
2019-01-19T23:40:08.632Z,23.32
2019-01-19T23:42:37.102Z,21.50
2019-01-19T23:45:08.662Z,21.42
2019-01-19T23:47:37.106Z,21.87
2019-01-19T23:50:08.380Z,22.62
2019-01-19T23:52:36.840Z,21.95
2019-01-19T23:55:06.430Z,22.27
2019-01-19T23:57:35.061Z,23.07
